Latest Coastal Weather Observations for Cape Moreton

IDQ60701

Issued at 7:42 pm EST Saturday 25 March 2017 (issued every 10 minutes, with the page automatically refreshed every 10 minutes)

About coastal observations | Map of coastal stations | Coastal observations for QLD | Marine services | Other Formats
Station Details ID: 040043 Name: CAPE MORETON LIGHTHOUSE Lat: -27.03 Lon: 153.47 Height: 99.9 m
Data from the previous 72 hours. | See also: Recent months at Cape Moreton
Date/Time
EST
Temp
°C
Wind Pressure Rain since
9am
mm
Weather Cloud Vis
km
Sea
Height
m
Swell
Dir  Spd
kts
Gust
kts
hPa Trend Height
m
Period
s
Dir
25/07:30pm 23.9 ESE 17 20 1015.5 - 0.2 - - - - - - -
25/07:00pm 23.8 ESE 16 20 1015.1 - 0.2 - - - - - - -
25/06:30pm 23.8 ESE 16 20 1014.8 - 0.2 - - - - - - -
25/06:00pm 23.8 ESE 17 21 1014.5 - 0.2 - - - - - - -
25/05:30pm 24.0 ESE 17 21 1014.3 - 0.2 - - - - - - -
25/05:00pm 24.4 ESE 17 19 1013.8 - 0.2 - - - - - - -
25/04:30pm 24.8 ESE 17 21 1013.7 - 0.2 - - - - - - -
25/04:00pm 24.8 ESE 18 21 1013.7 - 0.2 - - - - - - -
25/03:30pm 25.0 SE 16 21 1013.8 - 0.2 - - - - - - -
25/03:00pm 25.4 ESE 17 21 1013.8 - 0.2 - - - - - - -
25/02:30pm 25.2 SE 17 21 1013.9 - 0.2 - - - - - - -
25/02:00pm 25.6 ESE 17 20 1013.9 - 0.2 - - - - - - -
25/01:30pm 25.9 ESE 17 21 1014.2 - 0.2 - - - - - - -
25/01:00pm 25.6 SE 17 21 1014.6 - 0.2 - - - - - - -
25/12:30pm 26.0 ESE 18 21 1014.8 - 0.2 - - - - - - -
25/12:00pm 26.2 SE 19 22 1015.2 - 0.2 Recent precip. - - - - - -
25/11:30am 26.0 SE 18 22 1015.5 - 0.2 - - - - - - -
25/11:00am 25.9 SE 19 23 1015.9 - 0.0 - - - - - - -
25/10:30am 25.4 SE 20 24 1016.1 - 0.0 - - - - - - -
25/10:00am 24.9 SE 20 24 1016.0 - 0.0 - - - - - - -
25/09:30am 24.3 SE 23 27 1015.9 - 0.0 - - - - - - -
25/09:00am 24.7 SE 23 26 1015.7 - 6.8 - - - - - - -
25/08:30am 24.1 SE 24 29 1015.7 - 6.8 - - - - - - -
25/08:00am 24.2 SE 25 29 1015.1 - 6.8 - - - - - - -
25/07:30am 24.4 SE 25 29 1014.6 - 6.8 - - - - - - -
25/07:00am 23.8 ESE 26 30 1014.3 - 6.8 - - - - - - -
25/06:30am 22.7 SE 22 29 1014.4 - 6.8 - - - - - - -
25/06:00am 23.4 SE 24 29 1013.9 - 6.8 - - - - - - -
25/05:30am 23.6 ESE 24 29 1013.6 - 6.8 - - - - - - -
25/05:00am 22.9 ESE 25 29 1013.5 - 6.8 - - - - - - -
25/04:30am 22.7 ESE 27 31 1013.1 - 6.6 - - - - - - -
25/04:00am 23.9 ESE 24 28 1013.1 - 6.2 - - - - - - -
25/03:30am 23.8 ESE 24 28 1013.1 - 6.2 - - - - - - -
25/03:00am 23.9 ESE 24 27 1013.2 - 6.2 - - - - - - -
25/02:30am 22.5 ESE 26 31 1013.7 - 6.2 - - - - - - -
25/02:00am 23.3 ESE 23 26 1013.8 - 6.2 - - - - - - -
25/01:30am 22.8 SE 17 27 1014.1 - 6.0 - - - - - - -
25/01:00am 22.4 SE 23 29 1014.9 - 3.2 - - - - - - -
25/12:30am 22.6 SE 23 27 1014.9 - 1.0 - - - - - - -
25/12:00am 22.9 SE 25 29 1015.1 - 1.0 - - - - - - -
 
Date/Time
EST
Temp
°C
Wind Pressure Rain since
9am
mm
Weather Cloud Vis
km
Sea
Height
m
Swell
Dir  Spd
kts
Gust
kts
hPa Trend Height
m
Period
s
Dir
24/11:30pm 23.4 ESE 23 27 1015.2 - 1.0 - - - - - - -
24/11:00pm 23.5 SE 23 28 1015.1 - 1.0 - - - - - - -
24/10:30pm 23.5 SE 23 26 1015.1 - 1.0 - - - - - - -
24/10:00pm 23.2 SE 15 18 1015.2 - 1.0 - - - - - - -
24/09:30pm 23.1 S 15 19 1015.3 - 0.8 - - - - - - -
24/09:00pm 23.0 S 18 24 1015.5 - 0.2 - - - - - - -
24/08:30pm 23.4 SE 22 27 1015.3 - 0.2 - - - - - - -
24/08:00pm 23.3 SE 17 22 1015.3 - 0.2 - - - - - - -
24/07:30pm 23.0 SSE 15 21 1015.2 - 0.0 - - - - - - -
24/07:00pm 23.9 SSE 17 22 1014.6 - 0.0 - - - - - - -
24/06:30pm 24.8 SE 14 17 1014.6 - 0.0 - - - - - - -
24/06:00pm 24.8 SE 11 13 1014.2 - 0.0 - - - - - - -
24/05:30pm 25.3 ESE 9 12 1014.0 - 0.0 - - - - - - -
24/05:00pm 25.2 SE 9 11 1013.6 - 0.0 - - - - - - -
24/04:30pm 25.2 SE 9 11 1013.5 - 0.0 - - - - - - -
24/04:00pm 25.6 E 7 9 1013.3 - 0.0 - - - - - - -
24/03:30pm 25.7 E 7 8 1013.3 - 0.0 - - - - - - -
24/03:00pm 25.8 E 7 9 1013.4 - 0.0 - - - - - - -
24/02:30pm 25.5 ENE 8 10 1013.4 - 0.0 - - - - - - -
24/02:00pm 25.4 ENE 8 9 1013.7 - 0.0 - - - - - - -
24/01:30pm 25.7 NE 7 9 1014.0 - 0.0 - - - - - - -
24/01:00pm 25.9 ENE 9 11 1014.5 - 0.0 - - - - - - -
24/12:30pm 26.1 ENE 9 11 1014.7 - 0.0 - - - - - - -
24/12:00pm 26.3 ENE 9 11 1015.2 - 0.0 - - - - - - -
24/11:30am 26.5 E 10 12 1015.5 - 0.0 - - - - - - -
24/11:00am 26.4 E 11 13 1015.8 - 0.0 - - - - - - -
24/10:30am 26.0 ESE 10 12 1016.1 - 0.0 - - - - - - -
24/10:00am 26.5 ESE 12 15 1016.0 - 0.0 - - - - - - -
24/09:30am 26.5 ESE 13 15 1015.9 - 0.0 - - - - - - -
24/09:00am 26.1 SE 13 16 1015.8 - 0.4 - - - - - - -
24/08:30am 24.6 SSE 10 12 1015.7 - 0.4 - - - - - - -
24/08:00am 24.3 SSE 9 12 1015.6 - 0.4 - - - - - - -
24/07:30am 24.0 SSW 7 10 1015.2 - 0.4 - - - - - - -
24/07:00am 25.1 S 4 5 1014.9 - 0.4 - - - - - - -
24/06:30am 24.4 SSE 3 5 1014.7 - 0.4 - - - - - - -
24/06:00am 24.4 ESE 4 6 1014.3 - 0.4 - - - - - - -
24/05:30am 24.3 E 5 25 1014.0 - 0.4 - - - - - - -
24/05:00am 24.6 E 4 5 1013.8 - 0.4 - - - - - - -
24/04:30am 24.6 E 5 7 1013.5 - 0.4 - - - - - - -
24/04:00am 24.8 ENE 6 7 1013.4 - 0.4 - - - - - - -
24/03:30am 24.7 ENE 5 6 1013.6 - 0.4 - - - - - - -
24/03:00am 24.6 E 5 6 1013.7 - 0.4 - - - - - - -
24/02:30am 24.7 E 5 6 1014.0 - 0.4 - - - - - - -
24/02:00am 24.6 E 7 9 1014.2 - 0.4 - - - - - - -
24/01:30am 24.9 E 6 8 1014.4 - 0.4 - - - - - - -
24/01:00am 25.1 ENE 8 9 1014.7 - 0.4 - - - - - - -
24/12:30am 25.1 ENE 7 8 1014.9 - 0.4 - - - - - - -
24/12:00am 24.9 ENE 8 9 1015.0 - 0.4 - - - - - - -
 
Date/Time
EST
Temp
°C
Wind Pressure Rain since
9am
mm
Weather Cloud Vis
km
Sea
Height
m
Swell
Dir  Spd
kts
Gust
kts
hPa Trend Height
m
Period
s
Dir
23/11:30pm 24.8 E 8 10 1015.3 - 0.4 - - - - - - -
23/11:00pm 24.8 E 9 10 1015.4 - 0.4 - - - - - - -
23/10:30pm 24.8 E 9 12 1015.8 - 0.4 - - - - - - -
23/10:00pm 24.8 ENE 11 13 1015.7 - 0.4 - - - - - - -
23/09:30pm 24.8 E 10 12 1015.8 - 0.4 - - - - - - -
23/09:00pm 24.9 E 9 11 1016.1 - 0.4 - - - - - - -
23/08:30pm 24.9 E 10 12 1016.1 - 0.4 - - - - - - -
23/08:00pm 24.9 E 9 11 1015.8 - 0.4 - - - - - - -
23/07:30pm 24.8 E 8 10 1015.6 - 0.4 - - - - - - -
23/07:00pm 24.7 E 8 9 1015.3 - 0.4 - - - - - - -
23/06:30pm 24.6 E 9 10 1015.0 - 0.4 - - - - - - -
23/06:00pm 24.7 E 7 8 1014.8 - 0.4 - - - - - - -
23/05:30pm 24.8 ENE 6 7 1014.6 - 0.4 - - - - - - -
23/05:00pm 25.1 E 2 4 1014.6 - 0.4 - - - - - - -
23/04:30pm 25.1 NNE 4 6 1014.4 - 0.4 - - - - - - -
23/04:00pm 25.4 NNE 5 6 1014.1 - 0.4 - - - - - - -
23/03:30pm 25.3 NNW 5 6 1014.0 - 0.4 - - - - - - -
23/03:00pm 25.1 NW 6 7 1014.1 - 0.4 - - - - - - -
23/02:30pm 25.4 NNW 8 11 1014.2 - 0.4 - - - - - - -
23/02:00pm 25.5 NW 7 10 1014.3 - 0.4 - - - - - - -
23/01:30pm 25.6 WNW 7 10 1014.5 - 0.4 - - - - - - -
23/01:00pm 25.0 NW 8 12 1014.8 - 0.4 - - - - - - -
23/12:30pm 25.2 NW 8 12 1015.3 - 0.4 - - - - - - -
23/12:00pm 24.2 NW 7 10 1015.6 - 0.4 Recent precip. - - - - - -
23/11:30am 25.3 NNW 9 11 1015.9 - 0.0 - - - - - - -
23/11:00am 25.4 N 10 13 1016.2 - 0.0 - - - - - - -
23/10:30am 24.9 N 9 14 1016.3 - 0.0 - - - - - - -
23/10:00am 25.1 NNE 10 13 1016.5 - 0.0 - - - - - - -
23/09:30am 25.6 N 9 11 1016.7 - 0.0 - - - - - - -
23/09:00am 25.2 NNE 9 12 1016.5 - 15.6 - - - - - - -
23/08:30am 25.1 NNE 10 13 1016.2 - 15.6 - - - - - - -
23/08:00am 24.7 NNE 11 13 1015.8 - 15.6 - - - - - - -
23/07:30am 23.9 NNE 11 13 1015.5 - 15.6 - - - - - - -
23/07:00am 24.0 NNE 12 16 1015.2 - 15.6 - - - - - - -
23/06:30am 23.7 NNE 12 15 1015.1 - 15.6 - - - - - - -
23/06:00am 23.9 NE 13 15 1014.9 - 15.6 - - - - - - -
23/05:30am 23.9 NNE 5 7 1014.8 - 15.6 - - - - - - -
23/05:00am 23.9 NNE 5 7 1014.5 - 15.6 - - - - - - -
23/04:30am 24.1 NNE 3 6 1014.3 - 15.6 - - - - - - -
23/04:00am 23.9 N 4 4 1014.0 - 15.6 - - - - - - -
23/03:30am 23.3 N 7 10 1013.9 - 15.4 - - - - - - -
23/03:00am 23.8 NNE 9 11 1013.8 - 15.2 Rain - - - - - -
23/02:30am 24.5 NNE 5 6 1014.0 - 14.8 - - - - - - -
23/02:00am 24.9 N 5 7 1014.1 - 14.8 - - - - - - -
23/01:30am 25.1 NNE 6 8 1014.3 - 14.6 - - - - - - -
23/01:00am 25.1 NE 7 8 1014.5 - 14.6 - - - - - - -
23/12:30am 25.3 NNE 6 7 1014.8 - 14.6 - - - - - - -
23/12:00am 25.5 NE 7 9 1015.0 - 14.6 - - - - - - -
 
Date/Time
EST
Temp
°C
Wind Pressure Rain since
9am
mm
Weather Cloud Vis
km
Sea
Height
m
Swell
Dir  Spd
kts
Gust
kts
hPa Trend Height
m
Period
s
Dir
22/11:30pm 25.5 NE 7 9 1015.0 - 14.6 - - - - - - -
22/11:00pm 25.4 NE 7 8 1015.3 - 14.6 - - - - - - -
22/10:30pm 25.5 NNE 5 7 1015.5 - 14.6 - - - - - - -
22/10:00pm 25.5 NE 6 7 1015.6 - 14.6 - - - - - - -
22/09:30pm 25.6 NNE 7 8 1015.6 - 14.6 - - - - - - -
22/09:00pm 25.6 NE 8 9 1015.5 - 14.6 - - - - - - -
22/08:30pm 25.5 NNE 9 11 1015.3 - 14.6 - - - - - - -
22/08:00pm 25.5 NNE 8 10 1015.0 - 14.6 - - - - - - -

Other Formats:

Comma delimited format used in spreadsheet applications
http://www.bom.gov.au/fwo/IDQ60701/IDQ60701.94594.axf

JavaScript Object Notation format (JSON) in row-major order
http://www.bom.gov.au/fwo/IDQ60701/IDQ60701.94594.json